createdAt,value
2018-09-06T00:01:50.232Z,7.23
2018-09-06T00:04:19.006Z,7.00
2018-09-06T00:06:47.986Z,6.90
2018-09-06T00:09:16.847Z,6.17
2018-09-06T00:11:45.653Z,7.07
2018-09-06T00:14:14.640Z,6.20
2018-09-06T00:16:43.548Z,6.70
2018-09-06T00:19:12.370Z,7.30
2018-09-06T00:21:41.448Z,6.23
2018-09-06T00:24:10.352Z,6.70
2018-09-06T00:26:39.224Z,6.70
2018-09-06T00:29:08.381Z,6.20
2018-09-06T00:31:37.218Z,6.50
2018-09-06T00:34:06.382Z,6.70
2018-09-06T00:36:35.580Z,6.20
2018-09-06T00:39:06.000Z,6.73
2018-09-06T00:41:34.880Z,6.67
2018-09-06T00:44:03.909Z,6.00
2018-09-06T00:46:32.776Z,6.40
2018-09-06T00:49:01.658Z,5.97
2018-09-06T00:51:30.711Z,6.70
2018-09-06T00:53:59.534Z,7.10
2018-09-06T00:56:28.700Z,5.80
2018-09-06T00:58:57.676Z,6.20
2018-09-06T01:01:26.454Z,6.20
2018-09-06T01:03:55.294Z,5.83
2018-09-06T01:06:24.431Z,6.23
2018-09-06T01:08:53.465Z,6.10
2018-09-06T01:11:22.346Z,6.30
2018-09-06T01:13:51.520Z,6.37
2018-09-06T01:16:20.345Z,6.03
2018-09-06T01:18:49.141Z,6.40
2018-09-06T01:21:18.073Z,6.17
2018-09-06T01:23:46.851Z,6.53
2018-09-06T01:26:15.640Z,6.53
2018-09-06T01:28:44.862Z,6.30
2018-09-06T01:31:13.698Z,6.60
2018-09-06T01:33:42.487Z,7.83
2018-09-06T01:36:18.505Z,6.53
2018-09-06T01:38:47.319Z,7.37
2018-09-06T01:41:16.122Z,7.00
2018-09-06T01:43:45.289Z,7.20
2018-09-06T01:46:14.388Z,7.63
2018-09-06T01:48:43.708Z,6.80
2018-09-06T01:51:12.726Z,7.00
2018-09-06T01:53:41.508Z,7.83
2018-09-06T01:56:10.322Z,7.67
2018-09-06T01:58:39.463Z,6.97
2018-09-06T02:01:08.227Z,7.57
2018-09-06T02:03:37.043Z,7.97
2018-09-06T02:06:07.671Z,7.87
2018-09-06T02:08:36.500Z,7.77
2018-09-06T02:11:05.332Z,7.60
2018-09-06T02:13:34.463Z,7.67
2018-09-06T02:16:03.335Z,7.90
2018-09-06T02:18:33.065Z,8.37
2018-09-06T02:21:02.665Z,8.40
2018-09-06T02:23:31.972Z,8.37
2018-09-06T02:26:01.001Z,8.20
2018-09-06T02:28:30.181Z,7.60
2018-09-06T02:30:58.970Z,8.07
2018-09-06T02:33:27.747Z,8.50
2018-09-06T02:35:56.745Z,8.00
2018-09-06T02:38:25.528Z,7.43
2018-09-06T02:40:54.365Z,7.93
2018-09-06T02:43:23.514Z,7.60
2018-09-06T02:45:52.288Z,7.90
2018-09-06T02:48:25.746Z,7.90
2018-09-06T02:51:00.259Z,8.10
2018-09-06T02:53:31.872Z,8.13
2018-09-06T02:56:00.876Z,8.07
2018-09-06T02:58:29.726Z,8.70
2018-09-06T03:00:59.312Z,8.20
2018-09-06T03:03:28.110Z,9.33
2018-09-06T03:05:57.014Z,9.27
2018-09-06T03:08:26.260Z,8.77
2018-09-06T03:10:58.435Z,9.43
2018-09-06T03:13:27.519Z,8.20
2018-09-06T03:15:56.476Z,8.33
2018-09-06T03:18:25.415Z,8.40
2018-09-06T03:20:54.336Z,8.50
2018-09-06T03:23:23.130Z,8.43
2018-09-06T03:25:52.252Z,9.17
2018-09-06T03:28:21.159Z,9.57
2018-09-06T03:30:50.192Z,8.20
2018-09-06T03:33:19.035Z,8.90
2018-09-06T03:35:48.231Z,9.00
2018-09-06T03:38:16.970Z,10.00
2018-09-06T03:40:45.756Z,9.07
2018-09-06T03:43:14.783Z,9.00
2018-09-06T03:45:49.663Z,8.97
2018-09-06T03:48:18.667Z,10.07
2018-09-06T03:50:47.481Z,8.93
2018-09-06T03:53:16.322Z,9.70
2018-09-06T03:55:45.276Z,8.63
2018-09-06T03:58:14.136Z,9.03
2018-09-06T04:00:42.942Z,9.70
2018-09-06T04:03:11.867Z,9.07
2018-09-06T04:05:40.723Z,8.83
2018-09-06T04:08:09.716Z,8.80
2018-09-06T04:10:38.768Z,9.40
2018-09-06T04:13:07.615Z,9.03
2018-09-06T04:15:36.380Z,9.33
2018-09-06T04:18:05.458Z,9.23
2018-09-06T04:20:34.345Z,8.93
2018-09-06T04:23:03.156Z,9.10
2018-09-06T04:25:32.255Z,8.90
2018-09-06T04:28:01.054Z,9.73
2018-09-06T04:30:30.243Z,9.83
2018-09-06T04:32:59.335Z,9.47
2018-09-06T04:35:28.152Z,10.10
2018-09-06T04:37:56.919Z,9.60
2018-09-06T04:40:26.013Z,10.67
2018-09-06T04:42:54.824Z,10.20
2018-09-06T04:45:23.582Z,10.13
2018-09-06T04:47:52.535Z,11.00
2018-09-06T04:50:21.402Z,10.13
2018-09-06T04:52:50.159Z,10.63
2018-09-06T04:55:19.329Z,10.87
2018-09-06T04:57:48.088Z,10.90
2018-09-06T05:00:16.864Z,10.20
2018-09-06T05:02:45.826Z,10.13
2018-09-06T05:05:14.592Z,10.03
2018-09-06T05:07:43.428Z,10.60
2018-09-06T05:10:12.412Z,9.57
2018-09-06T05:12:41.179Z,11.33
2018-09-06T05:15:09.952Z,10.63
2018-09-06T05:17:38.888Z,10.90
2018-09-06T05:20:07.739Z,10.00
2018-09-06T05:22:36.535Z,11.40
2018-09-06T05:25:05.794Z,10.23
2018-09-06T05:27:34.542Z,10.47
2018-09-06T05:30:03.440Z,10.57
2018-09-06T05:32:32.879Z,10.87
2018-09-06T05:35:01.681Z,11.77
2018-09-06T05:37:30.484Z,10.33
2018-09-06T05:39:59.582Z,10.80
2018-09-06T05:42:28.367Z,10.10
2018-09-06T05:45:03.555Z,9.80
2018-09-06T05:47:32.399Z,10.53
2018-09-06T05:50:01.153Z,10.93
2018-09-06T05:52:30.344Z,11.43
2018-09-06T05:54:59.185Z,10.00
2018-09-06T05:57:28.128Z,10.90
2018-09-06T05:59:57.230Z,9.93
2018-09-06T06:02:26.352Z,10.80
2018-09-06T06:04:55.143Z,9.87
2018-09-06T06:07:40.077Z,9.53
2018-09-06T06:10:08.860Z,10.20
2018-09-06T06:12:37.975Z,9.70
2018-09-06T06:15:06.920Z,9.87
2018-09-06T06:17:35.763Z,10.07
2018-09-06T06:20:04.677Z,10.27
2018-09-06T06:22:33.601Z,10.17
2018-09-06T06:25:02.388Z,10.37
2018-09-06T06:27:31.194Z,9.43
2018-09-06T06:30:00.464Z,10.27
2018-09-06T06:32:29.652Z,10.70
2018-09-06T06:34:58.499Z,10.30
2018-09-06T06:37:27.595Z,10.57
2018-09-06T06:39:56.453Z,10.27
2018-09-06T06:42:25.267Z,11.37
2018-09-06T06:44:59.396Z,10.63
2018-09-06T06:47:28.277Z,11.13
2018-09-06T06:49:57.066Z,10.90
2018-09-06T06:52:26.035Z,10.00
2018-09-06T06:54:54.926Z,10.50
2018-09-06T06:57:23.687Z,11.03
2018-09-06T06:59:52.588Z,10.77
2018-09-06T07:02:21.353Z,11.90
2018-09-06T07:04:50.191Z,10.30
2018-09-06T07:07:19.289Z,10.33
2018-09-06T07:09:48.050Z,11.20
2018-09-06T07:12:16.814Z,10.27
2018-09-06T07:14:45.787Z,9.93
2018-09-06T07:17:14.632Z,9.83
2018-09-06T07:19:43.424Z,9.70
2018-09-06T07:22:12.570Z,9.47
2018-09-06T07:24:41.347Z,10.70
2018-09-06T07:27:10.126Z,10.47
2018-09-06T07:29:39.352Z,10.80
2018-09-06T07:32:08.147Z,10.37
2018-09-06T07:34:36.942Z,10.30
2018-09-06T07:37:06.016Z,11.47
2018-09-06T07:39:34.776Z,10.70
2018-09-06T07:42:03.639Z,10.30
2018-09-06T07:44:32.712Z,9.77
2018-09-06T07:47:01.508Z,9.73
2018-09-06T07:49:30.302Z,9.90
2018-09-06T07:51:59.481Z,9.57
2018-09-06T07:54:28.312Z,9.13
2018-09-06T07:56:57.215Z,9.77
2018-09-06T07:59:26.217Z,9.77
2018-09-06T08:01:55.017Z,9.70
2018-09-06T08:04:23.873Z,10.03
2018-09-06T08:06:53.037Z,9.50
2018-09-06T08:09:21.863Z,9.60
2018-09-06T08:11:50.647Z,9.07
2018-09-06T08:14:19.700Z,9.40
2018-09-06T08:16:48.573Z,9.60
2018-09-06T08:19:17.400Z,9.40
2018-09-06T08:21:46.569Z,9.30
2018-09-06T08:24:15.404Z,8.83
2018-09-06T08:26:44.183Z,8.47
2018-09-06T08:29:13.368Z,8.87
2018-09-06T08:31:42.346Z,9.27
2018-09-06T08:34:11.141Z,8.27
2018-09-06T08:36:40.164Z,7.77
2018-09-06T08:39:10.616Z,8.60
2018-09-06T08:41:40.548Z,8.27
2018-09-06T08:44:09.960Z,8.07
2018-09-06T08:46:39.695Z,8.33
2018-09-06T08:49:08.632Z,8.03
2018-09-06T08:51:37.559Z,8.03
2018-09-06T08:54:06.507Z,7.67
2018-09-06T08:56:35.364Z,8.93
2018-09-06T08:59:04.586Z,8.37
2018-09-06T09:01:41.494Z,8.90
2018-09-06T09:04:10.863Z,7.97
2018-09-06T09:06:39.782Z,7.87
2018-09-06T09:09:12.735Z,8.60
2018-09-06T09:11:41.615Z,8.17
2018-09-06T09:14:10.575Z,7.60
2018-09-06T09:16:39.564Z,7.87
2018-09-06T09:19:08.578Z,8.30
2018-09-06T09:21:37.463Z,7.90
2018-09-06T09:24:06.875Z,8.00
2018-09-06T09:26:36.339Z,7.90
2018-09-06T09:29:05.318Z,8.00
2018-09-06T09:31:34.512Z,8.33
2018-09-06T09:34:03.397Z,7.57
2018-09-06T09:36:32.236Z,8.07
2018-09-06T09:39:01.611Z,8.13
2018-09-06T09:41:30.751Z,8.00
2018-09-06T09:43:59.639Z,7.57
2018-09-06T09:48:57.383Z,8.00
2018-09-06T09:51:26.210Z,7.40
2018-09-06T09:53:55.320Z,8.23
2018-09-06T09:56:24.761Z,7.43
2018-09-06T09:58:53.547Z,7.50
2018-09-06T10:01:29.090Z,8.13
2018-09-06T10:04:03.561Z,7.73
2018-09-06T10:06:38.351Z,7.60
2018-09-06T10:09:12.631Z,6.97
2018-09-06T10:11:41.682Z,7.07
2018-09-06T10:14:10.459Z,7.40
2018-09-06T10:16:39.359Z,7.37
2018-09-06T10:19:08.483Z,6.20
2018-09-06T10:21:37.277Z,7.33
2018-09-06T10:24:06.190Z,7.80
2018-09-06T10:26:35.824Z,8.17
2018-09-06T10:29:04.825Z,6.97
2018-09-06T10:31:34.152Z,7.10
2018-09-06T10:34:03.136Z,6.90
2018-09-06T10:36:32.335Z,7.37
2018-09-06T10:39:01.141Z,6.63
2018-09-06T10:41:30.338Z,6.50
2018-09-06T10:43:59.155Z,6.93
2018-09-06T10:46:27.979Z,6.90
2018-09-06T10:48:57.072Z,6.93
2018-09-06T10:51:25.970Z,6.60
2018-09-06T10:53:54.928Z,7.10
2018-09-06T10:56:23.957Z,6.70
2018-09-06T10:58:52.800Z,6.63
2018-09-06T11:01:22.943Z,6.63
2018-09-06T11:03:53.947Z,6.20
2018-09-06T11:06:23.867Z,6.10
2018-09-06T11:08:52.894Z,6.47
2018-09-06T11:11:21.933Z,6.43
2018-09-06T11:13:50.782Z,5.70
2018-09-06T11:16:20.018Z,6.73
2018-09-06T11:18:49.208Z,7.40
2018-09-06T11:21:18.144Z,5.90
2018-09-06T11:23:46.828Z,6.63
2018-09-06T11:26:15.748Z,6.03
2018-09-06T11:28:44.525Z,6.17
2018-09-06T11:31:13.381Z,6.40
2018-09-06T11:33:42.521Z,6.30
2018-09-06T11:36:11.314Z,6.00
2018-09-06T11:38:40.433Z,6.20
2018-09-06T11:41:09.775Z,6.13
2018-09-06T11:43:38.609Z,6.43
2018-09-06T11:46:13.601Z,6.60
2018-09-06T11:48:42.459Z,6.53
2018-09-06T11:51:11.296Z,7.33
2018-09-06T11:53:40.583Z,8.17
2018-09-06T11:56:09.532Z,6.50
2018-09-06T11:58:38.368Z,5.87
2018-09-06T12:01:07.631Z,5.87
2018-09-06T12:03:36.916Z,5.87
2018-09-06T12:06:05.902Z,5.63
2018-09-06T12:08:34.800Z,5.57
2018-09-06T12:11:03.643Z,5.57
2018-09-06T12:13:32.570Z,5.37
2018-09-06T12:16:01.375Z,5.57
2018-09-06T12:18:30.409Z,5.63
2018-09-06T12:20:59.359Z,5.10
2018-09-06T12:23:28.642Z,6.40
2018-09-06T12:25:57.485Z,6.17
2018-09-06T12:28:27.016Z,5.63
2018-09-06T12:30:57.157Z,5.90
2018-09-06T12:33:26.166Z,5.60
2018-09-06T12:35:55.057Z,5.57
2018-09-06T12:38:24.030Z,6.13
2018-09-06T12:40:52.871Z,5.70
2018-09-06T12:43:22.126Z,5.90
2018-09-06T12:45:51.314Z,5.90
2018-09-06T12:48:20.234Z,5.67
2018-09-06T12:50:49.322Z,6.53
2018-09-06T12:53:18.503Z,5.97
2018-09-06T12:55:47.511Z,5.87
2018-09-06T12:58:16.331Z,6.13
2018-09-06T13:00:46.776Z,5.60
2018-09-06T13:03:15.609Z,6.13
2018-09-06T13:05:44.762Z,6.13
2018-09-06T13:08:13.824Z,5.50
2018-09-06T13:10:42.659Z,6.10
2018-09-06T13:13:11.425Z,5.77
2018-09-06T13:15:40.277Z,6.17
2018-09-06T13:18:09.137Z,5.90
2018-09-06T13:20:38.042Z,5.33
2018-09-06T13:23:06.881Z,6.20
2018-09-06T13:25:35.774Z,6.03
2018-09-06T13:28:04.627Z,6.03
2018-09-06T13:30:33.416Z,6.40
2018-09-06T13:33:02.327Z,5.83
2018-09-06T13:35:31.210Z,6.10
2018-09-06T13:37:59.987Z,5.90
2018-09-06T13:40:28.753Z,6.10
2018-09-06T13:42:57.632Z,6.30
2018-09-06T13:45:26.500Z,5.60
2018-09-06T13:47:55.280Z,7.40
2018-09-06T13:50:24.121Z,8.80
2018-09-06T13:52:52.968Z,9.47
2018-09-06T13:55:22.072Z,9.00
2018-09-06T13:57:51.048Z,9.77
2018-09-06T14:00:19.842Z,10.60
2018-09-06T14:02:49.005Z,10.33
2018-09-06T14:05:17.912Z,10.20
2018-09-06T14:07:46.693Z,11.30
2018-09-06T14:10:15.675Z,11.90
2018-09-06T14:12:44.472Z,12.20
2018-09-06T14:15:13.279Z,13.27
2018-09-06T14:17:42.356Z,12.77
2018-09-06T14:20:11.412Z,13.63
2018-09-06T14:22:40.235Z,13.83
2018-09-06T14:25:09.197Z,13.53
2018-09-06T14:27:38.025Z,14.33
2018-09-06T14:30:06.956Z,15.03
2018-09-06T14:32:35.788Z,15.33
2018-09-06T14:35:04.717Z,15.33
2018-09-06T14:37:33.491Z,15.53
2018-09-06T14:40:02.407Z,16.47
2018-09-06T14:42:31.154Z,14.87
2018-09-06T14:45:00.331Z,14.47
2018-09-06T14:47:29.160Z,14.67
2018-09-06T14:49:58.395Z,14.47
2018-09-06T14:52:27.250Z,15.10
2018-09-06T14:54:56.080Z,15.20
2018-09-06T14:57:24.913Z,14.53
2018-09-06T14:59:54.128Z,16.37
2018-09-06T15:02:22.955Z,16.90
2018-09-06T15:04:51.728Z,15.10
2018-09-06T15:07:20.820Z,16.67
2018-09-06T15:09:49.586Z,15.70
2018-09-06T15:12:18.455Z,14.63
2018-09-06T15:14:47.265Z,15.60
2018-09-06T15:17:16.114Z,15.43
2018-09-06T15:19:44.955Z,16.40
2018-09-06T15:22:13.796Z,16.50
2018-09-06T15:24:42.644Z,16.93
2018-09-06T15:27:11.460Z,16.30
2018-09-06T15:29:40.502Z,16.07
2018-09-06T15:32:09.331Z,16.80
2018-09-06T15:34:38.160Z,16.00
2018-09-06T15:37:07.179Z,18.50
2018-09-06T15:39:35.948Z,17.93
2018-09-06T15:42:04.832Z,16.70
2018-09-06T15:44:33.583Z,17.13
2018-09-06T15:47:02.343Z,17.37
2018-09-06T15:49:31.262Z,18.93
2018-09-06T15:52:00.076Z,16.87
2018-09-06T15:54:28.864Z,18.27
2018-09-06T15:56:57.643Z,19.43
2018-09-06T15:59:26.488Z,19.70
2018-09-06T16:01:55.315Z,18.63
2018-09-06T16:04:24.135Z,18.10
2018-09-06T16:06:52.911Z,19.00
2018-09-06T16:09:23.524Z,19.03
2018-09-06T16:11:52.340Z,20.53
2018-09-06T16:14:21.528Z,18.93
2018-09-06T16:16:50.343Z,20.00
2018-09-06T16:19:19.607Z,20.10
2018-09-06T16:21:48.394Z,21.07
2018-09-06T16:24:17.212Z,22.33
2018-09-06T16:26:46.144Z,19.00
2018-09-06T16:29:15.800Z,18.27
2018-09-06T16:31:44.590Z,17.07
2018-09-06T16:34:13.509Z,16.10
2018-09-06T16:36:42.294Z,15.73
2018-09-06T16:39:13.155Z,16.87
2018-09-06T16:41:42.112Z,17.93
2018-09-06T16:44:10.873Z,17.73
2018-09-06T16:46:39.707Z,15.77
2018-09-06T16:49:08.451Z,17.87
2018-09-06T16:51:37.383Z,17.17
2018-09-06T16:54:06.168Z,17.77
2018-09-06T16:56:35.395Z,18.00
2018-09-06T16:59:04.232Z,18.93
2018-09-06T17:01:33.120Z,18.53
2018-09-06T17:04:04.095Z,19.97
2018-09-06T17:06:32.911Z,21.13
2018-09-06T17:09:01.688Z,19.30
2018-09-06T17:11:31.928Z,19.80
2018-09-06T17:14:00.742Z,18.63
2018-09-06T17:16:29.655Z,19.93
2018-09-06T17:18:58.750Z,20.17
2018-09-06T17:21:27.544Z,19.30
2018-09-06T17:23:56.360Z,19.33
2018-09-06T17:26:25.416Z,19.53
2018-09-06T17:28:54.229Z,18.57
2018-09-06T17:31:23.016Z,20.00
2018-09-06T17:33:51.866Z,19.60
2018-09-06T17:36:20.648Z,18.80
2018-09-06T17:38:49.709Z,18.33
2018-09-06T17:41:18.531Z,20.03
2018-09-06T17:43:47.308Z,19.97
2018-09-06T17:46:16.268Z,19.23
2018-09-06T17:48:45.092Z,18.90
2018-09-06T17:51:13.944Z,20.83
2018-09-06T17:53:42.909Z,21.10
2018-09-06T17:56:11.671Z,20.90
2018-09-06T17:58:40.584Z,21.10
2018-09-06T18:01:24.235Z,22.87
2018-09-06T18:03:53.328Z,23.30
2018-09-06T18:06:22.133Z,22.40
2018-09-06T18:08:51.345Z,23.23
2018-09-06T18:11:20.259Z,23.50
2018-09-06T18:13:49.103Z,25.00
2018-09-06T18:16:18.566Z,27.60
2018-09-06T18:18:47.511Z,32.67
2018-09-06T18:21:16.430Z,33.47
2018-09-06T18:23:45.611Z,31.73
2018-09-06T18:26:14.480Z,32.50
2018-09-06T18:28:43.564Z,30.03
2018-09-06T18:31:13.006Z,30.67
2018-09-06T18:33:41.792Z,28.63
2018-09-06T18:36:10.779Z,28.70
2018-09-06T18:38:40.087Z,28.73
2018-09-06T18:41:09.447Z,31.40
2018-09-06T18:43:38.270Z,29.87
2018-09-06T18:46:07.359Z,30.70
2018-09-06T18:48:36.151Z,30.80
2018-09-06T18:51:05.001Z,31.27
2018-09-06T18:53:34.368Z,29.90
2018-09-06T18:56:03.415Z,32.17
2018-09-06T18:58:32.314Z,32.30
2018-09-06T19:01:01.446Z,33.93
2018-09-06T19:03:30.243Z,32.33
2018-09-06T19:05:59.108Z,33.13
2018-09-06T19:08:28.044Z,30.47
2018-09-06T19:10:56.816Z,32.47
2018-09-06T19:13:25.599Z,32.67
2018-09-06T19:15:54.561Z,31.87
2018-09-06T19:18:23.478Z,32.07
2018-09-06T19:20:52.252Z,33.17
2018-09-06T19:23:21.327Z,33.93
2018-09-06T19:25:50.152Z,33.13
2018-09-06T19:28:18.903Z,32.77
2018-09-06T19:30:48.045Z,34.87
2018-09-06T19:33:16.809Z,34.17
2018-09-06T19:35:45.572Z,34.70
2018-09-06T19:38:14.725Z,34.70
2018-09-06T19:40:43.479Z,33.97
2018-09-06T19:43:12.676Z,34.97
2018-09-06T19:45:42.934Z,35.17
2018-09-06T19:48:11.701Z,35.10
2018-09-06T19:50:40.455Z,35.03
2018-09-06T19:53:09.750Z,35.73
2018-09-06T19:55:38.673Z,35.20
2018-09-06T19:58:07.443Z,34.67
2018-09-06T20:00:36.596Z,32.90
2018-09-06T20:03:05.375Z,34.87
2018-09-06T20:05:34.136Z,33.73
2018-09-06T20:08:03.130Z,35.23
2018-09-06T20:10:31.926Z,35.83
2018-09-06T20:13:00.804Z,38.97
2018-09-06T20:15:29.705Z,40.37
2018-09-06T20:17:58.459Z,37.97
2018-09-06T20:20:27.284Z,39.47
2018-09-06T20:22:56.424Z,38.70
2018-09-06T20:25:25.171Z,38.23
2018-09-06T20:27:53.936Z,39.47
2018-09-06T20:30:23.194Z,39.40
2018-09-06T20:32:52.008Z,38.40
2018-09-06T20:35:21.105Z,37.17
2018-09-06T20:37:54.200Z,37.27
2018-09-06T20:40:22.980Z,36.33
2018-09-06T20:42:51.818Z,35.60
2018-09-06T20:45:26.999Z,37.97
2018-09-06T20:47:55.775Z,38.07
2018-09-06T20:50:24.535Z,37.00
2018-09-06T20:52:53.675Z,36.70
2018-09-06T20:55:22.478Z,36.47
2018-09-06T20:57:51.324Z,108.50
2018-09-06T21:00:20.239Z,38.90
2018-09-06T21:02:49.095Z,39.43
2018-09-06T21:05:17.919Z,59.50
2018-09-06T21:07:47.092Z,149.83
2018-09-06T21:10:15.827Z,131.30
2018-09-06T21:12:44.624Z,39.63
2018-09-06T21:15:13.620Z,36.20
2018-09-06T21:17:42.416Z,39.63
2018-09-06T21:20:11.178Z,44.37
2018-09-06T21:22:40.274Z,51.50
2018-09-06T21:25:09.092Z,86.27
2018-09-06T21:27:38.112Z,44.10
2018-09-06T21:30:07.521Z,41.83
2018-09-06T21:32:36.359Z,37.97
2018-09-06T21:35:05.467Z,37.10
2018-09-06T21:37:35.113Z,38.10
2018-09-06T21:40:04.303Z,37.07
2018-09-06T21:42:33.115Z,36.10
2018-09-06T21:45:01.940Z,37.70
2018-09-06T21:47:30.817Z,37.87
2018-09-06T21:49:59.592Z,37.83
2018-09-06T21:52:28.528Z,38.80
2018-09-06T21:54:57.415Z,39.57
2018-09-06T21:57:26.208Z,38.93
2018-09-06T21:59:55.065Z,40.07
2018-09-06T22:02:29.422Z,38.90
2018-09-06T22:04:58.256Z,40.83
2018-09-06T22:07:27.532Z,40.90
2018-09-06T22:09:56.296Z,42.17
2018-09-06T22:12:25.118Z,42.53
2018-09-06T22:14:53.948Z,43.53
2018-09-06T22:17:22.828Z,43.00
2018-09-06T22:19:51.710Z,44.77
2018-09-06T22:22:20.603Z,44.67
2018-09-06T22:24:49.457Z,43.93
2018-09-06T22:27:18.272Z,44.37
2018-09-06T22:29:47.221Z,44.23
2018-09-06T22:32:16.027Z,42.60
2018-09-06T22:34:44.880Z,44.97
2018-09-06T22:37:13.837Z,45.73
2018-09-06T22:39:42.675Z,44.03
2018-09-06T22:42:11.585Z,44.43
2018-09-06T22:44:40.455Z,44.63
2018-09-06T22:47:09.293Z,45.53
2018-09-06T22:49:38.080Z,43.20
2018-09-06T22:52:07.068Z,45.53
2018-09-06T22:54:35.931Z,43.47
2018-09-06T22:57:04.824Z,45.13
2018-09-06T22:59:33.655Z,43.80
2018-09-06T23:02:02.520Z,45.23
2018-09-06T23:04:31.328Z,42.57
2018-09-06T23:07:00.407Z,44.03
2018-09-06T23:09:29.255Z,42.73
2018-09-06T23:11:58.116Z,43.33
2018-09-06T23:14:26.935Z,43.27
2018-09-06T23:16:55.760Z,44.70
2018-09-06T23:19:24.638Z,41.93
2018-09-06T23:21:53.563Z,45.63
2018-09-06T23:24:22.375Z,44.90
2018-09-06T23:26:51.229Z,43.87
2018-09-06T23:29:20.035Z,41.80
2018-09-06T23:31:48.947Z,42.10
2018-09-06T23:34:18.071Z,42.73
2018-09-06T23:36:46.925Z,43.87
2018-09-06T23:39:15.819Z,44.07
2018-09-06T23:41:44.606Z,43.03
2018-09-06T23:44:13.543Z,42.40
2018-09-06T23:46:42.588Z,45.87
2018-09-06T23:49:11.479Z,44.37
2018-09-06T23:51:40.629Z,45.00
2018-09-06T23:54:09.450Z,43.67
2018-09-06T23:56:38.280Z,44.53
2018-09-06T23:59:07.178Z,44.43
